Date,TemperatureHighF,TemperatureAvgF,TemperatureLowF,DewpointHighF,DewpointAvgF,DewpointLowF,HumidityHigh,HumidityAvg,HumidityLow,PressureMaxIn,PressureMinIn,WindSpeedMaxMPH,WindSpeedAvgMPH,GustSpeedMaxMPH,PrecipitationSumIn
2014-5-27,65.3,58.7,51.0,47.3,42.5,35.5,82,56,38,30.08,30.02,1,0,4,0.06
2014-5-28,64.3,52.4,47.1,50.0,46.4,40.6,92,81,47,30.09,30.02,1,0,5,0.05
2014-5-29,61.8,53.4,48.9,49.1,45.6,41.1,86,75,50,30.17,30.08,0,0,5,0.00
2014-5-30,67.4,55.2,45.5,52.5,46.6,42.4,92,74,53,30.12,29.93,1,0,4,0.00
2014-5-31,72.0,59.1,48.6,53.2,48.0,44.2,88,68,44,30.02,29.96,1,0,7,0.00
2014-6-1,66.8,55.0,49.6,53.8,48.6,46.1,90,80,55,30.05,29.98,1,0,5,0.00
2014-6-2,71.8,59.6,51.4,55.4,51.2,47.5,91,75,48,29.93,29.80,1,0,6,0.00
2014-6-3,60.4,54.8,49.1,51.8,48.7,45.7,88,80,69,30.05,29.83,0,0,4,0.00
2014-6-4,64.3,55.7,49.4,53.4,49.5,46.3,91,80,62,30.08,30.03,0,0,5,0.00
2014-6-5,70.4,55.8,48.2,51.3,46.5,41.8,91,74,38,30.11,30.01,1,0,5,0.00
2014-6-6,73.0,59.9,49.4,50.6,45.7,37.2,86,62,31,30.08,30.02,1,0,4,0.00
2014-6-7,73.3,61.2,52.2,53.8,50.3,45.7,89,69,42,30.12,30.03,1,0,6,0.00
2014-6-8,73.5,61.4,52.3,57.1,52.6,47.8,91,74,50,30.16,30.02,1,0,5,0.00
2014-6-9,67.8,58.2,52.9,54.1,49.2,45.4,87,73,54,30.09,30.01,1,0,5,0.00
2014-6-10,61.0,55.0,48.8,51.3,47.4,43.1,83,76,65,30.07,30.01,1,0,5,0.00
2014-6-11,71.1,60.0,49.4,52.5,48.6,41.3,89,68,36,30.02,29.76,1,0,5,0.00
2014-6-12,66.6,56.3,51.0,52.6,49.3,46.7,90,78,52,29.81,29.74,1,0,7,0.04
2014-6-13,54.5,51.5,50.2,53.1,49.1,44.7,95,91,78,30.05,29.79,0,0,5,0.39
2014-6-14,58.4,53.3,49.8,51.3,48.1,44.4,90,83,71,30.05,29.92,0,0,10,0.06
2014-6-15,58.3,51.4,46.5,55.7,48.9,44.3,94,91,85,29.92,29.78,1,0,3,0.24
2014-6-16,60.4,50.9,45.1,53.5,46.4,42.8,94,85,57,29.93,29.80,0,0,3,0.10
2014-6-17,58.7,52.7,47.7,53.6,48.8,45.4,94,87,79,30.07,29.93,0,0,3,0.17
2014-6-18,60.5,54.5,49.2,52.0,48.1,45.6,89,79,64,30.07,29.97,0,0,3,0.00
2014-6-19,74.0,61.2,51.0,55.8,50.9,47.4,89,71,43,29.97,29.89,1,0,6,0.02
2014-6-20,64.3,55.2,48.9,53.5,47.7,44.2,91,77,51,30.12,29.95,0,0,5,0.07
2014-6-21,70.1,56.4,45.7,51.5,45.4,40.8,89,68,41,30.10,29.98,1,0,5,0.00
2014-6-22,73.3,60.1,49.5,54.8,47.2,37.6,84,64,29,30.05,29.93,1,0,5,0.00
2014-6-23,74.4,62.4,54.2,55.9,49.7,44.0,81,64,41,30.01,29.92,1,0,5,0.00
2014-6-24,72.8,62.5,55.7,57.6,54.0,51.4,92,75,49,30.06,29.97,1,0,7,0.00
2014-6-25,76.3,64.2,55.7,60.1,56.0,51.3,92,76,45,29.97,29.72,1,0,4,0.00
2014-6-26,67.1,60.8,55.7,58.9,55.4,48.5,94,83,71,29.77,29.70,0,0,6,0.03
2014-6-27,68.1,58.2,53.3,57.8,53.3,48.9,92,84,66,29.83,29.67,1,0,11,0.10
2014-6-28,63.9,57.8,54.2,59.5,54.2,49.8,95,88,73,29.98,29.83,1,0,5,0.13
2014-6-29,63.2,57.2,52.3,57.8,52.2,49.3,93,84,68,30.17,29.98,0,0,7,0.06
2014-6-30,76.0,61.4,51.9,58.3,53.5,49.6,94,77,47,30.19,29.96,1,0,5,0.00
2014-7-1,90.5,71.4,55.7,62.9,56.3,52.1,92,63,28,29.96,29.67,1,0,4,0.00
2014-7-2,77.4,67.4,59.3,59.0,54.6,47.2,79,65,37,29.97,29.70,1,0,7,0.00
2014-7-3,66.1,59.7,54.7,55.1,51.6,47.2,85,75,62,30.06,29.96,0,0,4,0.00
2014-7-4,71.5,59.5,51.1,54.4,49.9,46.6,88,72,48,30.02,29.95,1,0,5,0.00
2014-7-5,72.5,62.6,54.7,56.5,52.8,47.8,89,72,47,30.09,29.97,1,0,4,0.00
2014-7-6,81.4,68.3,59.0,62.2,57.5,53.7,86,70,48,30.09,30.04,1,0,6,0.00
2014-7-7,77.7,66.5,60.7,64.9,60.1,57.7,92,81,60,30.08,29.97,0,0,4,0.00
2014-7-8,81.8,68.3,58.3,61.8,58.0,55.1,92,72,45,30.00,29.91,1,0,5,0.00
2014-7-9,77.2,64.0,57.8,58.2,54.9,51.9,88,74,45,29.96,29.90,1,0,6,0.00
2014-7-10,79.2,64.4,53.9,60.0,54.0,48.5,93,72,43,29.91,29.83,1,0,5,0.00
2014-7-11,83.8,69.4,57.0,60.1,54.9,51.0,86,63,35,29.94,29.84,1,0,7,0.00
2014-7-12,87.2,72.8,62.9,63.9,57.7,54.8,78,61,37,30.03,29.93,1,0,4,0.00
2014-7-13,80.9,70.9,59.5,63.3,57.1,49.1,75,62,48,30.04,29.95,1,0,4,0.00
2014-7-14,79.6,69.2,58.9,62.1,58.7,54.8,88,70,45,30.06,30.00,1,0,6,0.00
2014-7-15,82.8,69.2,58.4,62.7,58.2,54.6,94,70,39,30.04,29.92,1,0,5,0.00
2014-7-16,85.3,71.4,61.2,61.6,54.9,49.1,80,58,31,29.95,29.84,1,0,6,0.00
2014-7-17,75.8,64.3,55.1,57.1,53.8,51.5,89,70,45,29.97,29.87,1,0,6,0.00
2014-7-18,72.5,62.0,52.3,56.8,52.6,48.2,88,73,54,30.04,29.95,1,0,5,0.00
2014-7-19,74.2,63.7,57.5,62.5,58.0,54.1,94,82,65,30.00,29.87,2,0,10,0.00
2014-7-20,61.8,58.3,54.2,55.7,53.0,49.8,91,83,68,29.92,29.87,0,0,5,0.02
2014-7-21,71.8,60.4,53.2,55.4,50.7,47.9,91,72,46,29.98,29.91,1,0,5,0.00
2014-7-22,66.9,61.0,56.0,58.2,53.6,49.2,88,77,67,30.03,29.93,0,0,3,0.01
2014-7-23,61.8,58.3,53.5,58.6,56.2,51.5,94,93,88,30.01,29.88,0,0,5,0.96
2014-7-24,60.4,55.0,52.3,56.0,52.7,50.6,94,92,78,30.16,29.99,0,0,5,0.07
2014-7-25,70.1,59.1,51.3,57.5,52.7,49.2,94,81,58,30.14,30.03,0,0,4,0.00
2014-7-26,75.8,62.4,53.2,59.0,53.5,50.0,90,74,49,30.11,30.05,1,0,4,0.00
2014-7-27,79.9,65.1,54.7,60.5,53.7,49.6,88,69,42,30.12,30.02,1,0,4,0.00
2014-7-28,83.8,68.5,58.0,60.6,54.5,50.6,86,63,36,30.06,30.00,1,0,4,0.00
2014-7-29,82.2,69.0,59.0,59.0,53.7,50.8,79,60,37,30.08,29.99,1,0,4,0.00
2014-7-30,80.9,67.9,57.5,58.8,53.8,48.3,89,63,36,30.09,30.01,1,0,4,0.00
2014-7-31,84.1,68.2,55.7,60.1,52.5,47.2,78,59,35,30.05,29.96,1,0,3,0.00
2014-8-1,82.0,67.7,59.3,60.2,53.9,48.5,76,62,40,30.00,29.89,1,0,4,0.00
2014-8-2,80.3,69.1,61.6,62.6,58.6,54.7,90,70,50,29.94,29.88,1,0,3,0.02
2014-8-3,84.9,70.8,59.9,63.3,58.8,55.5,91,68,38,30.00,29.87,1,0,3,0.00
2014-8-4,86.3,71.0,60.5,60.1,55.6,49.1,86,61,28,29.93,29.85,1,0,4,0.00
2014-8-5,75.1,64.2,55.7,58.8,55.3,52.8,93,74,51,30.02,29.88,1,0,6,0.00
2014-8-6,76.1,65.4,58.9,60.0,57.2,55.0,92,76,52,30.09,30.00,1,0,5,0.00
2014-8-7,76.7,64.0,55.1,59.3,54.3,49.3,91,72,47,30.04,29.96,1,0,7,0.00
2014-8-8,74.4,63.1,55.1,56.2,50.6,47.0,85,65,39,30.07,29.98,2,0,5,0.00
2014-8-9,78.3,64.3,54.8,55.6,50.5,47.5,79,62,38,30.10,30.03,1,0,5,0.00
2014-8-10,84.7,68.4,56.3,59.5,54.0,48.3,85,62,34,30.07,29.92,1,0,6,0.00
2014-8-11,93.6,75.5,62.9,66.5,58.8,53.4,78,59,28,29.92,29.74,1,0,5,0.01
2014-8-12,77.6,69.0,62.6,63.3,60.6,56.7,91,76,51,29.84,29.73,0,0,4,0.10
2014-8-13,66.1,62.2,58.7,62.5,58.9,56.6,94,89,78,29.96,29.81,0,0,6,0.12
2014-8-14,66.0,62.0,58.7,60.6,58.6,55.5,93,89,79,29.97,29.91,0,0,2,0.02
2014-8-15,70.3,63.6,61.2,63.3,60.1,58.6,93,89,74,30.01,29.91,0,0,1,0.01
2014-8-16,74.6,66.1,60.7,63.8,60.1,58.1,92,82,64,30.06,30.00,0,0,4,0.00
2014-8-17,79.0,67.0,60.5,63.4,60.1,58.2,93,80,54,30.07,29.98,1,0,6,0.00
2014-8-18,81.6,68.7,59.5,65.2,61.0,56.9,93,78,52,29.98,29.76,1,0,4,0.00
2014-8-19,80.7,68.5,60.1,63.7,59.0,51.3,89,73,49,29.77,29.71,1,0,5,0.00
2014-8-20,70.3,61.3,55.4,55.3,52.0,49.7,84,72,56,29.94,29.77,1,0,6,0.00
2014-8-21,70.3,58.7,52.0,54.9,51.4,46.8,94,79,45,29.98,29.91,1,0,5,0.00
2014-8-22,73.7,61.4,52.9,57.6,53.5,49.7,91,77,51,30.04,29.93,1,0,5,0.00
2014-8-23,79.6,65.4,55.9,60.4,55.7,52.2,92,73,45,30.09,29.93,1,0,4,0.00
2014-8-24,76.0,64.3,57.3,58.4,55.2,52.5,89,73,51,29.93,29.85,1,0,5,0.00
2014-8-25,81.6,66.6,56.6,59.8,56.0,52.8,90,71,41,29.97,29.90,1,0,3,0.00
2014-8-26,84.7,69.3,58.1,60.7,55.7,49.6,89,65,35,29.99,29.91,1,0,6,0.00
2014-8-27,84.1,70.6,62.3,60.4,57.2,53.4,84,64,35,29.98,29.92,1,0,5,0.00
2014-8-28,73.9,62.1,55.1,61.2,56.6,52.2,94,83,61,30.05,29.95,1,0,6,0.00
2014-8-29,69.8,62.6,59.2,58.6,55.3,51.0,91,78,59,29.95,29.87,1,0,4,0.00
2014-8-30,61.8,59.0,56.2,59.5,55.9,53.4,92,89,80,29.92,29.82,0,0,2,0.50
2014-8-31,69.6,58.9,53.2,58.5,53.7,50.9,94,84,53,30.01,29.92,1,0,5,0.10
2014-9-1,74.2,60.2,52.5,56.5,53.0,49.6,91,79,50,30.03,29.92,1,0,6,0.00
2014-9-2,64.3,58.8,53.8,56.6,53.3,51.0,91,82,67,29.92,29.72,1,0,11,0.41
2014-9-3,68.3,56.4,52.3,56.4,52.3,50.3,94,87,56,30.05,29.82,0,0,4,0.10
2014-9-4,74.9,58.4,51.0,56.5,51.5,48.5,93,80,44,30.09,30.00,0,0,4,0.00
2014-9-5,81.1,63.9,53.6,59.7,53.9,51.0,92,73,39,30.09,29.98,2,0,4,0.00
2014-9-6,86.1,69.1,59.0,57.0,50.2,44.2,80,53,27,29.99,29.79,2,0,4,0.00
2014-9-7,82.6,66.6,55.4,58.1,51.2,44.7,90,60,27,29.84,29.75,1,0,5,0.00
2014-9-8,68.1,59.1,54.5,57.1,53.9,51.3,90,83,65,29.88,29.77,0,0,4,0.04
2014-9-9,69.9,58.7,52.9,56.6,53.2,50.6,93,83,59,30.07,29.88,1,0,4,0.00
2014-9-10,69.1,57.0,52.2,55.7,49.3,39.1,93,77,44,30.16,30.07,0,0,2,0.00
2014-9-11,73.7,60.7,50.7,42.4,36.3,28.5,69,44,20,30.25,30.10,2,0,5,0.00
2014-9-12,75.1,60.4,51.7,45.1,35.3,24.3,61,40,25,30.06,29.90,1,0,4,0.00
2014-9-13,80.5,65.1,55.9,45.4,39.9,30.3,65,41,22,29.91,29.79,2,0,4,0.00
2014-9-14,82.6,66.3,56.6,51.3,44.8,38.8,69,48,24,29.84,29.78,1,0,3,0.00
2014-9-15,84.1,68.6,58.6,53.6,45.3,39.6,60,45,25,29.81,29.72,1,0,3,0.00
2014-9-16,70.8,63.0,57.0,56.7,53.3,46.6,85,71,50,29.83,29.74,1,0,5,0.00
2014-9-17,70.9,62.4,57.6,58.8,55.9,53.5,89,80,64,29.81,29.63,0,0,3,0.01
2014-9-18,61.2,59.5,58.1,59.2,57.0,55.7,93,91,85,29.85,29.65,0,0,6,0.04
2014-9-21,79.8,67.6,59.5,59.1,55.0,51.1,86,65,42,29.87,29.77,1,0,5,0.00
2014-9-22,68.4,61.3,58.1,59.9,56.2,53.9,93,84,66,29.94,29.85,0,0,3,0.03
2014-9-23,63.7,59.7,56.9,60.5,57.0,53.3,93,91,85,29.86,29.62,0,0,1,0.52
2014-9-24,61.3,58.6,56.5,59.6,56.8,54.5,94,93,92,29.80,29.62,0,0,3,0.81
2014-9-25,65.6,58.0,54.4,58.2,55.1,51.9,94,90,68,29.83,29.76,0,0,2,0.21
2014-9-26,62.6,57.2,53.9,58.2,54.2,51.9,94,90,79,30.04,29.83,0,0,4,0.23
2014-9-27,66.6,57.7,53.9,57.2,53.1,50.8,94,86,63,30.08,30.02,0,0,3,0.00
2014-9-28,61.6,55.9,52.9,55.8,53.0,50.3,94,90,78,30.03,29.85,0,0,2,0.00
2014-9-29,58.0,54.6,52.3,56.0,52.6,50.0,94,93,91,29.92,29.81,0,0,3,0.43
2014-9-30,61.0,54.6,51.0,55.2,51.2,49.0,95,89,75,30.10,29.91,0,0,4,0.04
2014-10-1,62.7,55.0,51.0,52.5,49.3,46.8,93,82,60,30.18,30.10,1,0,4,0.01
2014-10-2,65.2,54.4,48.3,50.2,47.1,44.9,92,77,52,30.25,30.14,0,0,3,0.00
2014-10-3,71.1,56.8,48.9,56.0,49.2,45.1,89,77,50,30.24,30.10,0,0,3,0.00
2014-10-4,69.1,60.8,56.3,57.0,53.4,49.9,89,77,63,30.14,30.07,1,0,3,0.00
2014-10-5,72.1,60.7,54.1,59.8,55.8,51.9,94,85,63,30.09,30.01,0,0,2,0.00
2014-10-6,76.1,63.1,56.7,61.8,57.7,54.6,94,84,59,30.01,29.90,0,0,2,0.00
2014-10-7,66.4,60.3,57.0,60.3,57.3,55.0,94,90,77,29.91,29.85,1,0,5,0.00
2014-10-8,65.0,58.4,55.1,57.6,55.2,53.1,94,89,75,29.97,29.88,0,0,3,0.00
2014-10-9,65.5,56.6,52.3,58.4,53.8,50.6,94,91,73,30.00,29.95,0,0,3,0.00
2014-10-10,60.2,55.4,51.4,55.3,52.5,49.4,94,90,82,30.01,29.94,1,0,6,0.03
2014-10-11,60.9,55.8,51.6,57.5,53.3,49.1,94,91,82,30.13,29.93,1,0,9,0.51
2014-10-12,60.1,54.9,51.6,55.7,52.0,49.6,95,90,76,30.20,29.98,0,0,7,0.01
2014-10-13,68.6,57.6,51.0,55.7,50.5,46.0,92,78,49,29.98,29.59,1,0,10,0.21
2014-10-14,58.3,53.1,49.5,54.6,50.5,47.8,95,91,81,29.77,29.48,0,0,6,0.54
2014-10-15,53.6,51.2,48.5,52.2,49.2,46.0,95,93,90,29.92,29.44,1,0,7,0.44
2014-10-16,67.3,54.8,49.1,50.7,46.5,40.6,92,75,41,29.98,29.74,2,0,6,0.01
2014-10-17,59.6,56.6,54.2,53.7,48.7,39.7,94,76,51,29.77,29.66,2,0,5,0.17
2014-10-18,61.2,57.7,55.4,59.8,56.2,53.7,95,95,94,29.90,29.75,0,0,2,0.40
2014-10-19,70.8,59.7,54.8,58.8,54.6,52.0,94,84,63,29.75,29.62,1,0,7,0.00
2014-10-20,57.6,55.2,51.3,56.2,53.3,49.4,95,93,89,29.74,29.62,0,0,5,0.55
2014-10-21,54.4,52.2,49.9,52.8,49.3,45.0,95,90,72,29.87,29.68,1,0,6,0.07
2014-10-22,54.2,52.8,51.3,52.4,50.5,46.2,95,92,76,29.68,29.50,2,0,11,1.00
2014-10-23,52.3,48.5,45.4,51.1,46.8,43.6,96,94,89,29.94,29.64,2,0,10,0.32
2014-10-24,52.8,48.7,44.5,51.1,46.6,42.9,95,92,87,29.99,29.67,2,0,9,0.19
2014-10-25,56.3,51.4,46.7,53.9,49.1,45.1,95,92,78,29.67,29.20,4,0,18,0.30
2014-10-26,51.4,46.7,42.8,49.2,43.7,40.4,92,89,85,30.09,29.67,3,1,14,0.01
2014-10-27,56.0,48.7,42.8,47.0,42.4,37.9,94,80,60,30.10,29.90,0,0,4,0.00
2014-10-28,54.4,51.3,48.2,52.7,48.7,42.3,94,91,70,29.91,29.77,2,0,11,0.45
2014-10-29,57.5,53.1,50.1,54.8,50.8,47.3,95,92,84,30.08,29.87,2,0,13,0.02
2014-10-30,59.2,55.5,51.1,53.8,50.7,47.1,92,84,70,29.96,29.67,3,0,10,0.36
2014-10-31,50.8,48.6,46.5,49.4,47.0,44.9,95,94,94,29.82,29.76,1,0,4,0.78
2014-11-1,47.7,45.8,43.5,46.1,44.3,41.9,95,94,93,29.99,29.78,0,0,2,0.00
2014-11-2,52.0,47.4,42.8,48.7,45.4,41.0,95,93,81,30.09,29.99,1,0,6,0.16
2014-11-3,53.3,51.3,49.6,51.9,49.9,48.2,95,95,95,30.06,29.94,3,1,17,0.36
2014-11-4,54.2,51.2,48.5,53.1,50.0,47.1,96,95,95,30.22,29.91,3,0,13,0.09
2014-11-5,56.3,53.1,48.9,54.9,51.6,47.5,96,95,93,30.22,29.89,1,0,5,0.22
2014-11-6,58.3,53.0,46.7,55.0,50.5,43.9,95,91,80,30.23,29.71,4,2,17,0.23
2014-11-7,55.0,46.8,41.6,45.4,42.1,38.9,93,84,60,30.42,30.23,1,0,4,0.00
2014-11-8,53.1,44.9,39.6,44.8,41.3,37.7,95,88,69,30.32,30.00,0,0,3,0.00
2014-11-9,49.5,45.6,43.3,48.1,44.0,42.0,95,94,91,29.99,29.75,2,0,12,0.40
2014-11-10,47.9,42.2,37.0,43.8,40.1,34.9,95,92,77,30.14,29.98,2,0,4,0.00
2014-11-11,45.1,36.4,28.7,37.0,21.1,8.5,94,57,26,30.30,30.11,3,0,11,0.00
2014-11-12,44.6,34.0,27.3,13.1,4.7,-4.3,54,31,17,30.30,30.03,5,1,13,0.00
2014-11-13,45.5,35.3,29.4,16.6,6.8,-1.8,52,31,21,30.03,29.90,2,0,13,0.00
2014-11-14,42.9,32.5,27.9,20.9,14.9,10.3,62,49,26,30.24,29.95,1,0,5,0.00
2014-11-15,44.8,33.9,28.8,17.7,12.9,9.1,53,42,25,30.49,30.24,1,0,4,0.00
2014-11-16,46.4,35.7,30.1,20.9,14.2,7.7,54,41,27,30.45,30.32,2,0,5,0.00
2014-11-17,50.5,38.3,32.7,24.3,18.1,10.7,60,44,28,30.34,30.12,1,0,5,0.00
2014-11-18,46.4,38.4,34.0,30.9,23.1,15.4,67,54,38,30.12,30.02,0,0,3,0.00
2014-11-19,51.3,43.7,36.2,34.0,26.3,21.9,61,51,33,30.02,29.77,0,0,0,0.00
2014-11-20,50.1,46.5,40.8,44.6,42.4,23.7,93,86,41,29.91,29.81,0,0,0,0.10
2014-11-21,50.5,47.6,44.3,47.2,44.0,42.0,94,88,73,29.84,29.23,4,1,16,0.53
2014-11-22,44.5,42.5,41.5,42.6,40.4,39.1,94,92,90,30.08,29.43,2,1,12,0.04
2014-11-23,49.4,44.1,41.5,47.5,42.2,39.3,95,93,88,30.30,30.00,4,1,13,0.41
2014-11-24,50.8,43.8,38.8,49.4,40.2,36.4,95,87,73,30.31,30.01,3,0,11,0.02
2014-11-25,53.8,50.4,46.5,52.7,49.0,45.1,96,95,95,30.16,30.02,4,1,18,0.56
2014-11-26,56.7,54.3,52.6,51.9,50.8,48.6,95,88,77,30.11,29.80,4,1,16,0.00
2014-11-27,55.0,52.5,50.8,50.3,48.0,42.4,93,85,64,29.80,29.60,4,2,19,0.18
2014-11-28,51.4,42.7,34.1,48.8,40.7,32.3,94,93,89,29.60,29.39,3,1,16,1.50
2014-11-29,36.5,28.3,22.1,34.7,24.7,17.0,94,87,63,30.15,29.46,1,0,7,0.01
2014-11-30,33.5,25.4,20.8,26.7,21.1,18.1,91,84,71,30.18,30.06,1,0,5,0.01
2014-12-1,36.2,28.0,23.5,24.9,21.0,17.1,85,75,55,30.18,30.04,0,0,0,0.01
2014-12-2,37.2,30.2,26.6,29.1,25.8,23.5,89,84,70,30.17,29.86,3,0,6,0.00
2014-12-3,46.8,36.6,31.0,30.3,25.2,20.4,75,64,41,29.86,29.70,1,0,4,0.01
2014-12-4,43.9,41.1,38.6,41.3,35.5,28.2,93,81,65,29.89,29.71,0,0,3,0.04
2014-12-5,52.5,47.4,43.2,50.8,45.3,41.3,95,92,84,29.91,29.68,1,0,6,0.16
2014-12-6,49.4,46.7,44.6,47.7,44.6,42.1,94,92,85,30.18,29.72,3,1,11,0.23
2014-12-7,53.9,48.3,43.1,47.9,42.5,37.9,93,81,63,30.18,29.91,0,0,5,0.00
2014-12-8,58.6,51.2,46.7,47.0,43.1,39.2,90,75,49,29.99,29.78,2,0,10,0.30
2014-12-9,58.6,53.3,49.9,53.6,49.5,46.3,93,87,75,29.83,29.65,4,2,16,0.40
2014-12-10,62.0,54.2,47.4,51.2,47.6,42.6,92,79,53,29.65,29.19,5,3,19,0.45
2014-12-11,53.2,49.0,46.0,47.4,42.5,35.8,94,79,62,29.50,29.09,4,1,21,0.32
2014-12-12,49.4,46.2,43.2,43.8,42.1,40.8,91,86,79,29.99,29.46,4,1,14,0.06
2014-12-13,43.2,42.6,42.1,40.9,40.4,39.7,93,92,91,30.06,29.99,0,0,3,0.06
2014-12-14,52.5,40.9,34.6,36.8,30.7,22.8,94,71,33,30.16,29.92,4,0,17,0.00
2014-12-15,54.5,46.6,38.6,32.7,27.9,23.0,61,48,36,29.92,29.76,3,0,13,0.00
2014-12-16,48.0,45.0,40.6,38.4,33.4,26.8,76,64,44,29.79,29.74,3,0,13,0.00
2014-12-17,45.4,43.1,40.6,42.7,39.2,32.3,93,86,67,29.86,29.74,0,0,5,0.10
2014-12-18,47.3,44.1,40.6,44.1,41.7,39.0,94,91,82,29.89,29.66,3,0,11,0.49
2014-12-19,46.8,44.4,42.3,43.6,40.3,34.6,94,86,67,29.90,29.72,2,1,11,0.14
2014-12-20,52.3,46.6,42.6,50.9,44.2,38.5,95,91,82,29.80,29.37,5,2,25,0.49
2014-12-21,50.8,48.5,47.1,48.7,45.5,43.1,93,89,82,30.05,29.47,3,1,13,0.00
2014-12-22,47.9,43.6,39.2,44.8,38.8,36.2,91,84,69,30.33,30.05,1,0,5,0.00
2014-12-23,42.1,41.9,41.8,37.7,37.1,36.5,85,83,81,30.26,30.25,0,0,0,0.00
2014-12-24,39.9,38.0,36.9,38.2,36.4,35.2,95,94,93,30.00,29.84,1,0,5,0.18
2014-12-25,41.9,38.4,35.5,39.9,36.5,33.5,95,93,90,30.24,30.00,1,0,4,0.05
2014-12-26,42.2,36.5,32.2,40.3,34.5,30.4,95,92,86,30.33,30.22,1,0,4,0.00
2014-12-27,44.1,41.1,38.8,42.6,39.5,36.9,95,94,92,30.27,29.96,4,1,16,0.25
2014-12-28,39.9,37.3,34.3,38.3,35.7,32.6,94,94,93,30.16,30.02,1,0,4,0.28
2014-12-29,37.8,33.3,27.9,35.4,30.9,23.7,95,91,81,30.67,30.10,1,0,4,0.00
2014-12-30,34.7,17.1,25.1,23.7,10.9,14.5,84,39,44,30.80,30.67,0,0,2,0.00
2014-12-31,35.2,12.6,26.0,22.9,8.6,18.9,78,28,55,30.68,30.32,0,0,4,0.00
2015-1-1,38.2,18.5,29.5,25.9,13.5,21.9,78,38,58,30.36,30.15,255,0,255,0.00
2015-1-2,-200.0,0.0,200.0,-99.9,0.0,200.0,0,0,100,30.15,29.98,0,0,0,0.00